sensor_id;sensor_type;location;lat;lon;timestamp;pressure;altitude;pressure_sealevel;temperature;humidity
3524;BME280;1776;53.330;11.498;2024-03-23T00:55:40;23619.59;;;-147.39;99.38
3524;BME280;1776;53.330;11.498;2024-03-23T00:58:06;23597.22;;;-147.39;99.46
3524;BME280;1776;53.330;11.498;2024-03-23T01:00:31;23637.88;;;-147.39;99.48
3524;BME280;1776;53.330;11.498;2024-03-23T01:02:56;23611.44;;;-147.39;99.68
3524;BME280;1776;53.330;11.498;2024-03-23T01:05:21;23609.41;;;-147.39;99.83
3524;BME280;1776;53.330;11.498;2024-03-23T01:07:47;23597.22;;;-147.39;99.79
3524;BME280;1776;53.330;11.498;2024-03-23T01:10:12;23599.25;;;-147.39;100.00
3524;BME280;1776;53.330;11.498;2024-03-23T01:12:37;23650.09;;;-147.39;99.93
3524;BME280;1776;53.330;11.498;2024-03-23T01:15:03;23625.69;;;-147.39;99.68
3524;BME280;1776;53.330;11.498;2024-03-23T01:17:28;23597.22;;;-147.39;99.48
3524;BME280;1776;53.330;11.498;2024-03-23T01:19:53;23589.09;;;-147.39;99.25
3524;BME280;1776;53.330;11.498;2024-03-23T01:22:19;23615.53;;;-147.39;99.03
3524;BME280;1776;53.330;11.498;2024-03-23T01:24:44;23617.56;;;-147.39;99.16
3524;BME280;1776;53.330;11.498;2024-03-23T01:27:09;23611.44;;;-147.39;99.14
3524;BME280;1776;53.330;11.498;2024-03-23T01:29:35;23621.63;;;-147.39;99.33
3524;BME280;1776;53.330;11.498;2024-03-23T01:32:00;23605.34;;;-147.39;99.32
3524;BME280;1776;53.330;11.498;2024-03-23T01:34:25;23589.09;;;-147.39;99.75
3524;BME280;1776;53.330;11.498;2024-03-23T01:36:51;23595.19;;;-147.39;99.88
3524;BME280;1776;53.330;11.498;2024-03-23T01:39:17;23572.81;;;-147.39;100.00
3524;BME280;1776;53.330;11.498;2024-03-23T01:41:42;23570.78;;;-147.39;99.92
3524;BME280;1776;53.330;11.498;2024-03-23T01:44:08;23595.19;;;-147.39;100.00
3524;BME280;1776;53.330;11.498;2024-03-23T01:46:35;23556.56;;;-147.39;100.00
3524;BME280;1776;53.330;11.498;2024-03-23T01:49:01;23550.47;;;-147.39;99.92
3524;BME280;1776;53.330;11.498;2024-03-23T01:51:27;23570.78;;;-147.39;100.00
3524;BME280;1776;53.330;11.498;2024-03-23T01:53:54;23554.53;;;-147.39;100.00
3524;BME280;1776;53.330;11.498;2024-03-23T01:56:20;23605.34;;;-147.39;100.00
3524;BME280;1776;53.330;11.498;2024-03-23T01:58:45;23558.59;;;-147.39;100.00
3524;BME280;1776;53.330;11.498;2024-03-23T02:01:10;23583.00;;;-147.39;100.00
3524;BME280;1776;53.330;11.498;2024-03-23T02:03:35;23519.97;;;-147.39;100.00
3524;BME280;1776;53.330;11.498;2024-03-23T02:06:01;23564.69;;;-147.39;100.00
3524;BME280;1776;53.330;11.498;2024-03-23T02:08:27;23578.94;;;-147.39;100.00
3524;BME280;1776;53.330;11.498;2024-03-23T02:10:52;23631.78;;;-147.39;99.87
3524;BME280;1776;53.330;11.498;2024-03-23T02:13:18;23568.75;;;-147.39;99.24
3524;BME280;1776;53.330;11.498;2024-03-23T02:15:44;23650.09;;;-147.39;99.11
3524;BME280;1776;53.330;11.498;2024-03-23T02:18:10;23583.00;;;-147.39;98.93
3524;BME280;1776;53.330;11.498;2024-03-23T02:20:36;23576.88;;;-147.39;98.66
3524;BME280;1776;53.330;11.498;2024-03-23T02:23:01;23593.16;;;-147.39;98.83
3524;BME280;1776;53.330;11.498;2024-03-23T02:25:27;23599.25;;;-147.39;98.49
3524;BME280;1776;53.330;11.498;2024-03-23T02:27:52;23587.06;;;-147.39;98.18
3524;BME280;1776;53.330;11.498;2024-03-23T02:30:19;23589.09;;;-147.39;97.62
3524;BME280;1776;53.330;11.498;2024-03-23T02:32:44;23593.16;;;-147.39;97.53
3524;BME280;1776;53.330;11.498;2024-03-23T02:35:10;23583.00;;;-147.39;97.14
3524;BME280;1776;53.330;11.498;2024-03-23T02:37:35;23574.84;;;-147.39;97.62
3524;BME280;1776;53.330;11.498;2024-03-23T02:40:00;23560.63;;;-147.39;97.73
3524;BME280;1776;53.330;11.498;2024-03-23T02:42:25;23583.00;;;-147.39;97.58
3524;BME280;1776;53.330;11.498;2024-03-23T02:44:51;23578.94;;;-147.39;97.49
3524;BME280;1776;53.330;11.498;2024-03-23T02:47:16;23603.31;;;-147.39;97.15
3524;BME280;1776;53.330;11.498;2024-03-23T02:49:41;23585.03;;;-147.39;97.01
3524;BME280;1776;53.330;11.498;2024-03-23T02:52:06;23568.75;;;-147.39;96.61
3524;BME280;1776;53.330;11.498;2024-03-23T02:54:32;23578.94;;;-147.39;96.61
3524;BME280;1776;53.330;11.498;2024-03-23T02:56:57;23619.59;;;-147.39;96.59
3524;BME280;1776;53.330;11.498;2024-03-23T02:59:22;23603.31;;;-147.39;96.71
3524;BME280;1776;53.330;11.498;2024-03-23T03:01:47;23587.06;;;-147.39;96.81
3524;BME280;1776;53.330;11.498;2024-03-23T03:04:13;23587.06;;;-147.39;97.18
3524;BME280;1776;53.330;11.498;2024-03-23T03:06:38;23574.84;;;-147.39;96.92
3524;BME280;1776;53.330;11.498;2024-03-23T03:09:03;23583.00;;;-147.39;96.70
3524;BME280;1776;53.330;11.498;2024-03-23T03:11:29;23583.00;;;-147.39;97.26
3524;BME280;1776;53.330;11.498;2024-03-23T03:13:54;23597.22;;;-147.39;97.06
3524;BME280;1776;53.330;11.498;2024-03-23T03:16:20;23605.34;;;-147.39;97.23
3524;BME280;1776;53.330;11.498;2024-03-23T03:18:45;23611.44;;;-147.39;96.84
3524;BME280;1776;53.330;11.498;2024-03-23T03:21:12;23623.66;;;-147.39;96.49
3524;BME280;1776;53.330;11.498;2024-03-23T03:23:37;23611.44;;;-147.39;96.34
3524;BME280;1776;53.330;11.498;2024-03-23T03:26:04;23629.75;;;-147.39;96.02
3524;BME280;1776;53.330;11.498;2024-03-23T03:28:29;23607.38;;;-147.39;95.98
3524;BME280;1776;53.330;11.498;2024-03-23T03:30:56;23611.44;;;-147.39;95.83
3524;BME280;1776;53.330;11.498;2024-03-23T03:33:22;23607.38;;;-147.39;95.51
3524;BME280;1776;53.330;11.498;2024-03-23T03:35:48;23595.19;;;-147.39;95.42
3524;BME280;1776;53.330;11.498;2024-03-23T03:38:14;23625.69;;;-147.39;95.10
3524;BME280;1776;53.330;11.498;2024-03-23T03:40:39;23595.19;;;-147.39;94.99
3524;BME280;1776;53.330;11.498;2024-03-23T03:43:06;23605.34;;;-147.39;95.03
3524;BME280;1776;53.330;11.498;2024-03-23T03:45:31;23558.59;;;-147.39;95.19
3524;BME280;1776;53.330;11.498;2024-03-23T03:47:57;23648.03;;;-147.39;95.40
3524;BME280;1776;53.330;11.498;2024-03-23T03:50:22;23589.09;;;-147.39;95.48
3524;BME280;1776;53.330;11.498;2024-03-23T03:52:47;23627.72;;;-147.39;95.46
3524;BME280;1776;53.330;11.498;2024-03-23T03:55:14;23574.84;;;-147.39;95.35
3524;BME280;1776;53.330;11.498;2024-03-23T03:57:40;23593.16;;;-147.39;95.18
3524;BME280;1776;53.330;11.498;2024-03-23T04:00:06;23633.81;;;-147.39;95.54
3524;BME280;1776;53.330;11.498;2024-03-23T04:02:31;23605.34;;;-147.39;95.84
3524;BME280;1776;53.330;11.498;2024-03-23T04:04:56;23597.22;;;-147.39;96.10
3524;BME280;1776;53.330;11.498;2024-03-23T04:07:22;23629.75;;;-147.39;96.11
3524;BME280;1776;53.330;11.498;2024-03-23T04:09:48;23646.00;;;-147.39;96.28
3524;BME280;1776;53.330;11.498;2024-03-23T04:12:14;23611.44;;;-147.39;95.76
3524;BME280;1776;53.330;11.498;2024-03-23T04:14:39;23562.66;;;-147.39;95.93
3524;BME280;1776;53.330;11.498;2024-03-23T04:17:05;23587.06;;;-147.39;95.85
3524;BME280;1776;53.330;11.498;2024-03-23T04:19:30;23589.09;;;-147.39;95.94
3524;BME280;1776;53.330;11.498;2024-03-23T04:21:55;23605.34;;;-147.39;96.16
3524;BME280;1776;53.330;11.498;2024-03-23T04:24:20;23544.38;;;-147.39;96.17
3524;BME280;1776;53.330;11.498;2024-03-23T04:26:47;23560.63;;;-147.39;96.57
3524;BME280;1776;53.330;11.498;2024-03-23T04:29:13;23564.69;;;-147.39;96.61
3524;BME280;1776;53.330;11.498;2024-03-23T04:31:38;23629.75;;;-147.39;96.43
3524;BME280;1776;53.330;11.498;2024-03-23T04:34:03;23574.84;;;-147.39;96.78
3524;BME280;1776;53.330;11.498;2024-03-23T04:36:29;23611.44;;;-147.39;96.78
3524;BME280;1776;53.330;11.498;2024-03-23T04:38:55;23576.88;;;-147.39;96.87
3524;BME280;1776;53.330;11.498;2024-03-23T04:41:20;23599.25;;;-147.39;96.44
3524;BME280;1776;53.330;11.498;2024-03-23T04:43:45;23558.59;;;-147.39;96.64
3524;BME280;1776;53.330;11.498;2024-03-23T04:46:10;23589.09;;;-147.39;97.04
3524;BME280;1776;53.330;11.498;2024-03-23T04:48:36;23587.06;;;-147.39;97.34
3524;BME280;1776;53.330;11.498;2024-03-23T04:51:01;23562.66;;;-147.39;96.97
3524;BME280;1776;53.330;11.498;2024-03-23T04:53:27;23599.25;;;-147.39;97.00
3524;BME280;1776;53.330;11.498;2024-03-23T04:55:55;23585.03;;;-147.39;97.22
3524;BME280;1776;53.330;11.498;2024-03-23T04:58:24;23607.38;;;-147.39;96.95
3524;BME280;1776;53.330;11.498;2024-03-23T05:00:56;23548.44;;;-147.39;96.86
3524;BME280;1776;53.330;11.498;2024-03-23T05:03:22;23580.97;;;-147.39;97.15
3524;BME280;1776;53.330;11.498;2024-03-23T05:05:48;23556.56;;;-147.39;97.18
3524;BME280;1776;53.330;11.498;2024-03-23T05:08:14;23552.50;;;-147.39;97.27
3524;BME280;1776;53.330;11.498;2024-03-23T05:10:41;23554.53;;;-147.39;97.33
3524;BME280;1776;53.330;11.498;2024-03-23T05:13:06;23574.84;;;-147.39;97.42
3524;BME280;1776;53.330;11.498;2024-03-23T05:15:32;23544.38;;;-147.39;97.67
3524;BME280;1776;53.330;11.498;2024-03-23T05:17:57;23552.50;;;-147.39;97.91
3524;BME280;1776;53.330;11.498;2024-03-23T05:20:22;23552.50;;;-147.39;97.97
3524;BME280;1776;53.330;11.498;2024-03-23T05:22:48;23540.28;;;-147.39;98.17
3524;BME280;1776;53.330;11.498;2024-03-23T05:25:13;23546.41;;;-147.39;97.82
3524;BME280;1776;53.330;11.498;2024-03-23T05:27:38;23550.47;;;-147.39;97.71
3524;BME280;1776;53.330;11.498;2024-03-23T05:30:04;23544.38;;;-147.39;98.31
3524;BME280;1776;53.330;11.498;2024-03-23T05:32:31;23528.09;;;-147.39;98.24
3524;BME280;1776;53.330;11.498;2024-03-23T05:34:56;23532.16;;;-147.39;98.21
3524;BME280;1776;53.330;11.498;2024-03-23T05:37:22;23554.53;;;-147.39;98.58
3524;BME280;1776;53.330;11.498;2024-03-23T05:39:48;23542.34;;;-147.39;98.81
3524;BME280;1776;53.330;11.498;2024-03-23T05:42:16;23532.16;;;-147.39;99.13
3524;BME280;1776;53.330;11.498;2024-03-23T05:44:44;23507.78;;;-147.39;98.96
3524;BME280;1776;53.330;11.498;2024-03-23T05:47:09;23497.59;;;-147.39;98.79
3524;BME280;1776;53.330;11.498;2024-03-23T05:49:34;23507.78;;;-147.39;99.00
3524;BME280;1776;53.330;11.498;2024-03-23T05:51:59;23550.47;;;-147.39;98.63
3524;BME280;1776;53.330;11.498;2024-03-23T05:54:27;23544.38;;;-147.39;98.78
3524;BME280;1776;53.330;11.498;2024-03-23T05:56:54;23526.06;;;-147.39;98.48
3524;BME280;1776;53.330;11.498;2024-03-23T05:59:20;23556.56;;;-147.39;98.46
3524;BME280;1776;53.330;11.498;2024-03-23T06:01:46;23503.72;;;-147.39;99.12
3524;BME280;1776;53.330;11.498;2024-03-23T06:04:12;23503.72;;;-147.39;99.16
3524;BME280;1776;53.330;11.498;2024-03-23T06:06:38;23489.47;;;-147.39;99.00
3524;BME280;1776;53.330;11.498;2024-03-23T06:09:03;23534.19;;;-147.39;98.88
3524;BME280;1776;53.330;11.498;2024-03-23T06:11:28;23548.44;;;-147.39;98.73
3524;BME280;1776;53.330;11.498;2024-03-23T06:13:54;23589.09;;;-147.39;98.42
3524;BME280;1776;53.330;11.498;2024-03-23T06:16:19;23554.53;;;-147.39;98.41
3524;BME280;1776;53.330;11.498;2024-03-23T06:18:48;23564.69;;;-147.39;98.10
3524;BME280;1776;53.330;11.498;2024-03-23T06:21:13;23544.38;;;-147.39;97.79
3524;BME280;1776;53.330;11.498;2024-03-23T06:23:40;23556.56;;;-147.39;97.84
3524;BME280;1776;53.330;11.498;2024-03-23T06:26:05;23554.53;;;-147.39;97.44
3524;BME280;1776;53.330;11.498;2024-03-23T06:28:31;23576.88;;;-147.39;97.47
3524;BME280;1776;53.330;11.498;2024-03-23T06:30:56;23578.94;;;-147.39;98.16
3524;BME280;1776;53.330;11.498;2024-03-23T06:33:21;23587.06;;;-147.39;98.30
3524;BME280;1776;53.330;11.498;2024-03-23T06:35:51;23599.25;;;-147.39;98.30
3524;BME280;1776;53.330;11.498;2024-03-23T06:38:17;23554.53;;;-147.39;98.79
3524;BME280;1776;53.330;11.498;2024-03-23T06:40:42;23540.28;;;-147.39;98.91
3524;BME280;1776;53.330;11.498;2024-03-23T06:43:07;23524.03;;;-147.39;98.79
3524;BME280;1776;53.330;11.498;2024-03-23T06:45:33;23517.94;;;-147.39;98.77
3524;BME280;1776;53.330;11.498;2024-03-23T06:47:58;23515.91;;;-147.39;99.44
3524;BME280;1776;53.330;11.498;2024-03-23T06:50:25;23526.06;;;-147.39;99.58
3524;BME280;1776;53.330;11.498;2024-03-23T06:52:50;23509.81;;;-147.39;99.21
3524;BME280;1776;53.330;11.498;2024-03-23T06:55:15;23503.72;;;-147.39;99.49
3524;BME280;1776;53.330;11.498;2024-03-23T06:57:40;23528.09;;;-147.39;99.57
3524;BME280;1776;53.330;11.498;2024-03-23T07:00:06;23519.97;;;-147.39;100.00
3524;BME280;1776;53.330;11.498;2024-03-23T07:02:35;23522.00;;;-147.39;100.00
3524;BME280;1776;53.330;11.498;2024-03-23T07:05:00;23507.78;;;-147.39;99.99
3524;BME280;1776;53.330;11.498;2024-03-23T07:07:25;23542.34;;;-147.39;100.00
3524;BME280;1776;53.330;11.498;2024-03-23T07:09:52;23487.44;;;-147.39;100.00
3524;BME280;1776;53.330;11.498;2024-03-23T07:12:17;23517.94;;;-147.39;100.00
3524;BME280;1776;53.330;11.498;2024-03-23T07:14:43;23483.38;;;-147.39;100.00
3524;BME280;1776;53.330;11.498;2024-03-23T07:17:08;23507.78;;;-147.39;100.00
3524;BME280;1776;53.330;11.498;2024-03-23T07:19:33;23562.66;;;-147.39;99.76
3524;BME280;1776;53.330;11.498;2024-03-23T07:21:58;23522.00;;;-147.39;99.92
3524;BME280;1776;53.330;11.498;2024-03-23T07:24:27;23532.16;;;-147.39;99.71
3524;BME280;1776;53.330;11.498;2024-03-23T07:26:52;23524.03;;;-147.39;99.53
3524;BME280;1776;53.330;11.498;2024-03-23T07:29:19;23540.28;;;-147.39;99.59
3524;BME280;1776;53.330;11.498;2024-03-23T07:31:44;23599.25;;;-147.39;99.06
3524;BME280;1776;53.330;11.498;2024-03-23T07:34:10;23517.94;;;-147.39;99.59
3524;BME280;1776;53.330;11.498;2024-03-23T07:36:35;23499.63;;;-147.39;99.72
3524;BME280;1776;53.330;11.498;2024-03-23T07:39:00;23487.44;;;-147.39;99.87
3524;BME280;1776;53.330;11.498;2024-03-23T07:41:25;23507.78;;;-147.39;99.80
3524;BME280;1776;53.330;11.498;2024-03-23T07:43:53;23552.50;;;-147.39;99.67
3524;BME280;1776;53.330;11.498;2024-03-23T07:46:18;23617.56;;;-147.39;99.55
3524;BME280;1776;53.330;11.498;2024-03-23T07:48:45;23564.69;;;-147.39;99.20
3524;BME280;1776;53.330;11.498;2024-03-23T07:51:16;23548.44;;;-147.39;98.98
3524;BME280;1776;53.330;11.498;2024-03-23T07:53:43;23532.16;;;-147.39;98.68
3524;BME280;1776;53.330;11.498;2024-03-23T07:56:09;23387.81;;;-147.39;98.37
3524;BME280;1776;53.330;11.498;2024-03-23T07:58:35;23591.13;;;-147.39;98.17
3524;BME280;1776;53.330;11.498;2024-03-23T08:01:05;23548.44;;;-147.39;97.72
3524;BME280;1776;53.330;11.498;2024-03-23T08:03:33;23678.53;;;-147.39;97.18
3524;BME280;1776;53.330;11.498;2024-03-23T08:06:18;23627.72;;;-147.39;97.11
3524;BME280;1776;53.330;11.498;2024-03-23T08:08:51;23587.06;;;-147.39;96.72
3524;BME280;1776;53.330;11.498;2024-03-23T08:11:24;23593.16;;;-147.39;96.69
3524;BME280;1776;53.330;11.498;2024-03-23T08:13:49;23597.22;;;-147.39;95.91
3524;BME280;1776;53.330;11.498;2024-03-23T08:16:15;23607.38;;;-147.39;95.81
3524;BME280;1776;53.330;11.498;2024-03-23T08:18:40;23621.63;;;-147.39;95.93
3524;BME280;1776;53.330;11.498;2024-03-23T08:21:06;23605.34;;;-147.39;95.48
3524;BME280;1776;53.330;11.498;2024-03-23T08:23:33;23587.06;;;-147.39;94.74
3524;BME280;1776;53.330;11.498;2024-03-23T08:26:22;23639.91;;;-147.39;94.92
3524;BME280;1776;53.330;11.498;2024-03-23T08:28:47;23603.31;;;-147.39;94.46
3524;BME280;1776;53.330;11.498;2024-03-23T08:31:13;23648.03;;;-147.39;94.72
3524;BME280;1776;53.330;11.498;2024-03-23T08:33:40;23662.28;;;-147.39;93.85
3524;BME280;1776;53.330;11.498;2024-03-23T08:36:08;23617.56;;;-147.39;93.73
3524;BME280;1776;53.330;11.498;2024-03-23T08:38:34;23639.91;;;-147.39;93.58
3524;BME280;1776;53.330;11.498;2024-03-23T08:41:01;23656.19;;;-147.39;92.76
3524;BME280;1776;53.330;11.498;2024-03-23T08:43:31;23664.31;;;-147.39;92.56
3524;BME280;1776;53.330;11.498;2024-03-23T08:46:07;23692.78;;;-147.39;92.44
3524;BME280;1776;53.330;11.498;2024-03-23T08:48:34;23678.53;;;-147.39;91.50
3524;BME280;1776;53.330;11.498;2024-03-23T08:51:04;23680.56;;;-147.39;91.21
3524;BME280;1776;53.330;11.498;2024-03-23T08:53:30;23713.09;;;-147.39;90.56
3524;BME280;1776;53.330;11.498;2024-03-23T08:55:56;23664.31;;;-147.39;91.05
3524;BME280;1776;53.330;11.498;2024-03-23T08:58:26;23674.47;;;-147.39;90.55
3524;BME280;1776;53.330;11.498;2024-03-23T09:00:52;23676.50;;;-147.39;90.13
3524;BME280;1776;53.330;11.498;2024-03-23T09:03:17;23725.31;;;-147.39;89.91
3524;BME280;1776;53.330;11.498;2024-03-23T09:05:43;23709.03;;;-147.39;89.73
3524;BME280;1776;53.330;11.498;2024-03-23T09:08:08;23745.63;;;-147.39;89.92
3524;BME280;1776;53.330;11.498;2024-03-23T09:10:40;23784.25;;;-147.39;88.37
3524;BME280;1776;53.330;11.498;2024-03-23T09:13:06;23784.25;;;-147.39;87.49
3524;BME280;1776;53.330;11.498;2024-03-23T09:15:35;23802.56;;;-147.39;86.85
3524;BME280;1776;53.330;11.498;2024-03-23T09:18:01;23814.75;;;-147.39;86.53
3524;BME280;1776;53.330;11.498;2024-03-23T09:20:26;23863.56;;;-147.39;84.75
3524;BME280;1776;53.330;11.498;2024-03-23T09:22:52;23861.53;;;-147.39;84.18
3524;BME280;1776;53.330;11.498;2024-03-23T09:25:17;23845.25;;;-147.39;83.51
3524;BME280;1776;53.330;11.498;2024-03-23T09:27:42;23824.94;;;-147.39;83.68
3524;BME280;1776;53.330;11.498;2024-03-23T09:30:08;23890.00;;;-147.39;82.75
3524;BME280;1776;53.330;11.498;2024-03-23T09:32:35;23885.91;;;-147.39;82.56
3524;BME280;1776;53.330;11.498;2024-03-23T09:35:00;23851.34;;;-147.39;82.16
3524;BME280;1776;53.330;11.498;2024-03-23T09:37:25;23885.91;;;-147.39;81.76
3524;BME280;1776;53.330;11.498;2024-03-23T09:39:51;23906.25;;;-147.39;80.44
3524;BME280;1776;53.330;11.498;2024-03-23T09:42:16;23946.91;;;-147.39;79.37
3524;BME280;1776;53.330;11.498;2024-03-23T09:44:41;23946.91;;;-147.39;78.65
3524;BME280;1776;53.330;11.498;2024-03-23T09:47:07;23979.44;;;-147.39;78.47
3524;BME280;1776;53.330;11.498;2024-03-23T09:49:34;23975.38;;;-147.39;78.11
3524;BME280;1776;53.330;11.498;2024-03-23T09:52:02;23991.66;;;-147.39;77.53
3524;BME280;1776;53.330;11.498;2024-03-23T09:54:27;23995.72;;;-147.39;77.27
3524;BME280;1776;53.330;11.498;2024-03-23T09:56:52;24007.91;;;-147.39;76.49
3524;BME280;1776;53.330;11.498;2024-03-23T09:59:18;24009.94;;;-147.39;75.58
3524;BME280;1776;53.330;11.498;2024-03-23T10:01:43;24032.31;;;-147.39;75.68
3524;BME280;1776;53.330;11.498;2024-03-23T10:04:09;24020.09;;;-147.39;74.87
3524;BME280;1776;53.330;11.498;2024-03-23T10:06:34;24030.28;;;-147.39;76.71
3524;BME280;1776;53.330;11.498;2024-03-23T10:09:00;24097.38;;;-147.39;73.23
3524;BME280;1776;53.330;11.498;2024-03-23T10:11:25;24156.34;;;-147.39;72.54
3524;BME280;1776;53.330;11.498;2024-03-23T10:13:52;24174.63;;;-147.39;68.70
3524;BME280;1776;53.330;11.498;2024-03-23T10:16:22;24164.47;;;-147.39;66.99
3524;BME280;1776;53.330;11.498;2024-03-23T10:18:48;24170.56;;;-147.39;68.61
3524;BME280;1776;53.330;11.498;2024-03-23T10:21:14;24178.72;;;-147.39;67.51
3524;BME280;1776;53.330;11.498;2024-03-23T10:23:41;24219.38;;;-147.39;66.45
3524;BME280;1776;53.330;11.498;2024-03-23T10:26:17;24154.31;;;-147.39;65.42
3524;BME280;1776;53.330;11.498;2024-03-23T10:28:59;24154.31;;;-147.39;67.14
3524;BME280;1776;53.330;11.498;2024-03-23T10:31:36;24201.06;;;-147.39;65.11
3524;BME280;1776;53.330;11.498;2024-03-23T10:34:03;24215.31;;;-147.39;63.29
3524;BME280;1776;53.330;11.498;2024-03-23T10:36:29;24176.66;;;-147.39;63.88
3524;BME280;1776;53.330;11.498;2024-03-23T10:38:59;24201.06;;;-147.39;63.25
3524;BME280;1776;53.330;11.498;2024-03-23T10:41:31;23824.94;;;-147.39;62.31
3524;BME280;1776;53.330;11.498;2024-03-23T10:43:58;24239.72;;;-147.39;61.66
3524;BME280;1776;53.330;11.498;2024-03-23T10:46:23;24276.31;;;-147.39;61.97
3524;BME280;1776;53.330;11.498;2024-03-23T10:48:49;24304.78;;;-147.39;61.70
3524;BME280;1776;53.330;11.498;2024-03-23T10:51:14;24367.81;;;-147.39;56.02
3524;BME280;1776;53.330;11.498;2024-03-23T10:53:40;24349.50;;;-147.39;54.49
3524;BME280;1776;53.330;11.498;2024-03-23T10:56:06;24371.88;;;-147.39;56.29
3524;BME280;1776;53.330;11.498;2024-03-23T10:58:37;24337.31;;;-147.39;56.64
3524;BME280;1776;53.330;11.498;2024-03-23T11:01:03;24377.97;;;-147.39;56.91
3524;BME280;1776;53.330;11.498;2024-03-23T11:03:32;24394.25;;;-147.39;57.44
3524;BME280;1776;53.330;11.498;2024-03-23T11:06:01;24373.91;;;-147.39;57.75
3524;BME280;1776;53.330;11.498;2024-03-23T11:08:38;24441.00;;;-147.39;57.31
3524;BME280;1776;53.330;11.498;2024-03-23T11:11:14;24459.31;;;-147.39;56.66
3524;BME280;1776;53.330;11.498;2024-03-23T11:13:39;24473.53;;;-147.39;53.41
3524;BME280;1776;53.330;11.498;2024-03-23T11:16:24;24463.38;;;-147.39;52.18
3524;BME280;1776;53.330;11.498;2024-03-23T11:18:52;24487.78;;;-147.39;51.89
3524;BME280;1776;53.330;11.498;2024-03-23T11:21:52;24479.66;;;-147.39;51.09
3524;BME280;1776;53.330;11.498;2024-03-23T11:24:21;24487.78;;;-147.39;50.92
3524;BME280;1776;53.330;11.498;2024-03-23T11:26:47;24467.44;;;-147.39;52.14
3524;BME280;1776;53.330;11.498;2024-03-23T11:29:14;24479.66;;;-147.39;53.14
3524;BME280;1776;53.330;11.498;2024-03-23T11:32:07;24495.91;;;-147.39;51.86
3524;BME280;1776;53.330;11.498;2024-03-23T11:34:34;24571.16;;;-147.39;47.67
3524;BME280;1776;53.330;11.498;2024-03-23T11:37:04;24628.09;;;-147.39;46.61
3524;BME280;1776;53.330;11.498;2024-03-23T11:39:31;24615.88;;;-147.39;43.87
3524;BME280;1776;53.330;11.498;2024-03-23T11:41:57;24754.19;;;-147.39;44.85
3524;BME280;1776;53.330;11.498;2024-03-23T11:44:24;24715.53;;;-147.39;43.68
3524;BME280;1776;53.330;11.498;2024-03-23T11:46:50;24705.38;;;-147.39;43.39
3524;BME280;1776;53.330;11.498;2024-03-23T11:49:27;24707.41;;;-147.39;44.78
3524;BME280;1776;53.330;11.498;2024-03-23T11:51:54;24798.91;;;-147.39;43.64
3524;BME280;1776;53.330;11.498;2024-03-23T11:54:21;24784.69;;;-147.39;42.73
3524;BME280;1776;53.330;11.498;2024-03-23T11:56:59;24741.97;;;-147.39;42.52
3524;BME280;1776;53.330;11.498;2024-03-23T11:59:38;24750.09;;;-147.39;42.18
3524;BME280;1776;53.330;11.498;2024-03-23T12:02:09;24750.09;;;-147.39;42.80
3524;BME280;1776;53.330;11.498;2024-03-23T12:04:37;24735.88;;;-147.39;42.36
3524;BME280;1776;53.330;11.498;2024-03-23T12:07:13;24794.84;;;-147.39;42.65
3524;BME280;1776;53.330;11.498;2024-03-23T12:09:40;24788.75;;;-147.39;42.26
3524;BME280;1776;53.330;11.498;2024-03-23T12:12:18;24744.00;;;-147.39;42.73
3524;BME280;1776;53.330;11.498;2024-03-23T12:15:02;24780.63;;;-147.39;43.99
3524;BME280;1776;53.330;11.498;2024-03-23T12:17:28;24815.19;;;-147.39;44.36
3524;BME280;1776;53.330;11.498;2024-03-23T12:19:53;24758.25;;;-147.39;44.97
3524;BME280;1776;53.330;11.498;2024-03-23T12:22:22;24774.50;;;-147.39;45.13
3524;BME280;1776;53.330;11.498;2024-03-23T12:24:48;24756.22;;;-147.39;45.56
3524;BME280;1776;53.330;11.498;2024-03-23T12:27:13;24758.25;;;-147.39;45.76
3524;BME280;1776;53.330;11.498;2024-03-23T12:29:40;24776.53;;;-147.39;44.94
3524;BME280;1776;53.330;11.498;2024-03-23T12:32:06;24788.75;;;-147.39;45.61
3524;BME280;1776;53.330;11.498;2024-03-23T12:34:32;24760.28;;;-147.39;45.11
3524;BME280;1776;53.330;11.498;2024-03-23T12:36:57;24813.16;;;-147.39;43.74
3524;BME280;1776;53.330;11.498;2024-03-23T12:39:22;24819.25;;;-147.39;43.45
3524;BME280;1776;53.330;11.498;2024-03-23T12:41:48;24866.03;;;-147.39;43.60
3524;BME280;1776;53.330;11.498;2024-03-23T12:44:14;24851.78;;;-147.39;43.29
3524;BME280;1776;53.330;11.498;2024-03-23T12:46:43;24890.44;;;-147.39;43.79
3524;BME280;1776;53.330;11.498;2024-03-23T12:49:08;24898.56;;;-147.39;43.40
3524;BME280;1776;53.330;11.498;2024-03-23T12:51:34;24894.50;;;-147.39;43.01
3524;BME280;1776;53.330;11.498;2024-03-23T12:53:59;24864.00;;;-147.39;42.32
3524;BME280;1776;53.330;11.498;2024-03-23T12:56:25;24833.50;;;-147.39;42.88
3524;BME280;1776;53.330;11.498;2024-03-23T12:58:50;24833.50;;;-147.39;45.20
3524;BME280;1776;53.330;11.498;2024-03-23T13:01:20;24880.25;;;-147.39;43.06
3524;BME280;1776;53.330;11.498;2024-03-23T13:03:49;24796.88;;;-147.39;45.45
3524;BME280;1776;53.330;11.498;2024-03-23T13:06:15;24815.19;;;-147.39;43.99
3524;BME280;1776;53.330;11.498;2024-03-23T13:08:40;24746.03;;;-147.39;44.75
3524;BME280;1776;53.330;11.498;2024-03-23T13:11:07;24741.97;;;-147.39;44.59
3524;BME280;1776;53.330;11.498;2024-03-23T13:13:38;24674.88;;;-147.39;48.05
3524;BME280;1776;53.330;11.498;2024-03-23T13:16:04;24615.88;;;-147.39;50.28
3524;BME280;1776;53.330;11.498;2024-03-23T13:18:30;24485.75;;;-147.39;53.95
3524;BME280;1776;53.330;11.498;2024-03-23T13:20:56;24410.50;;;-147.39;60.74
3524;BME280;1776;53.330;11.498;2024-03-23T13:23:21;24377.97;;;-147.39;61.67
3524;BME280;1776;53.330;11.498;2024-03-23T13:25:53;24341.38;;;-147.39;63.29
3524;BME280;1776;53.330;11.498;2024-03-23T13:28:22;24325.09;;;-147.39;63.73
3524;BME280;1776;53.330;11.498;2024-03-23T13:30:54;24304.78;;;-147.39;63.93
3524;BME280;1776;53.330;11.498;2024-03-23T13:33:20;24270.22;;;-147.39;66.70
3524;BME280;1776;53.330;11.498;2024-03-23T13:35:52;24327.13;;;-147.39;66.97
3524;BME280;1776;53.330;11.498;2024-03-23T13:38:18;24347.47;;;-147.39;65.17
3524;BME280;1776;53.330;11.498;2024-03-23T13:40:57;24406.44;;;-147.39;61.01
3524;BME280;1776;53.330;11.498;2024-03-23T13:43:23;24463.38;;;-147.39;60.99